Flight Track Log - Related Links

Times and Time Zones

All times are in EDT time to prevent confusion due to time zone crossing. See the SWA910 flight status page for this flight to view local times or setup timezone preferences in your user account.

Time Position Orientation Groundspeed Altitude Reporting Facility
EDT Latitude Longitude Course Direction KTS MPH feet Rate Location/Type
Fri 02:56:15 PM 44.8531 -93.2140 186° South  Level FlightAware Approximate
Fri 02:57:15 PM 44.7368 -93.1884 348° North  Level FlightAware Approximate
Fri 02:58:15 PM 44.6219 -93.1720 351° North  Level FlightAware Approximate
Fri 02:59:15 PM 44.5175 -93.0958 345° North  Level FlightAware Approximate
Fri 03:00:15 PM 44.4101 -93.0284 342° North  Level FlightAware Approximate
Fri 03:01:15 PM 44.3070 -92.9490 340° North  Level FlightAware Approximate
Fri 03:02:15 PM 44.2003 -92.8863 340° North  Level FlightAware Approximate
Fri 03:03:15 PM 44.1101 -92.8123 338° Northwest  Level FlightAware Approximate
Fri 03:04:15 PM 44.0157 -92.7494 338° Northwest  Level FlightAware Approximate
Fri 03:05:15 PM 43.9144 -92.7131 339° North  Level FlightAware Approximate
Fri 03:06:15 PM 43.8318 -92.6267 337° Northwest  Level FlightAware Approximate
Fri 03:07:06 PM 44.8333 -93.2167 146° Southeast 176 203 2,900  Level Minneapolis TRACON
Fri 03:08:02 PM 44.7897 -93.1756 127° Southeast 212 244 5,500 2,165 Climbing FAA TRACON SMA TRACON (SMA)
Fri 03:08:43 PM 44.7653 -93.1294 166° South 253 291 6,400 2,325 Climbing FAA TRACON SMA TRACON (SMA)
Fri 03:09:22 PM 44.7147 -93.1117 164° South 272 313 8,600 3,154 Climbing FAA TRACON SMA TRACON (SMA)
Fri 03:10:01 PM 44.6633 -93.0906 163° South 281 323 10,500 2,100 Climbing FAA TRACON SMA TRACON (SMA)
Fri 03:10:42 PM 44.6114 -93.0686 162° South 321 369 11,400 2,400 Climbing FAA TRACON SMA TRACON (SMA)
Fri 03:11:21 PM 44.5497 -93.0406 164° South 337 388 13,700 2,925 Climbing FAA TRACON SMA TRACON (SMA)
Fri 03:12:02 PM 44.4872 -93.0150 163° South 339 390 15,300 2,100 Climbing FAA TRACON SMA TRACON (SMA)
Fri 03:12:41 PM 44.4286 -92.9900 163° South 360 414 16,500 2,127 Climbing FAA TRACON SMA TRACON (SMA)
Fri 03:13:21 PM 44.3606 -92.9603 163° South 372 428 18,100 2,519 Climbing FAA TRACON SMA TRACON (SMA)
Fri 03:14:02 PM 44.2906 -92.9306 158° South 379 436 19,900 2,325 Climbing FAA TRACON SMA TRACON (SMA)
Fri 03:14:41 PM 44.2303 -92.8958 154° Southeast 382 440 21,200 1,800 Climbing FAA TRACON SMA TRACON (SMA)
Fri 03:15:22 PM 44.1617 -92.8486 161° South 399 459 22,300 1,786 Climbing FAA TRACON SMA TRACON (SMA)
Fri 03:16:05 PM 44.0883 -92.8144 168° South 403 464 23,700 2,051 Climbing FAA TRACON SMA TRACON (SMA)
Fri 03:16:41 PM 44.0214 -92.7947 168° South 398 458 25,000 1,500 Climbing FAA TRACON SMA TRACON (SMA)
Fri 03:17:21 PM 43.9533 -92.7744 172° South 408 470 25,600 1,286 Climbing FAA TRACON SMA TRACON (SMA)
Fri 03:18:19 PM 43.8356 -92.7514 169° South 421 484 27,100 1,423 Climbing Minneapolis Center
Fri 03:20:56 PM 43.5367 -92.6744 169° South 436 502 30,700 1,382 Climbing Chicago Center
Fri 03:21:56 PM 43.4208 -92.6425 169° South 442 509 32,100 1,250 Climbing Chicago Center
Fri 03:22:56 PM 43.3028 -92.6106 168° South 442 509 33,200 950 Climbing Chicago Center
Fri 03:23:56 PM 43.1831 -92.5758 169° South 437 503 34,000 400 Climbing Chicago Center
Fri 03:24:56 PM 43.0650 -92.5442 167° South 437 503 34,000  Level Chicago Center
Fri 03:25:56 PM 42.9472 -92.5069 170° South 437 503 34,000  Level Chicago Center
Fri 03:26:56 PM 42.8314 -92.4783 167° South 437 503 34,000  Level Chicago Center
Fri 03:27:56 PM 42.7092 -92.4411 169° South 442 509 34,000  Level Chicago Center
Fri 03:28:56 PM 42.5811 -92.4067 164° South 442 509 34,000 300 Level Chicago Center
Fri 03:29:56 PM 42.4633 -92.3617 162° South 442 509 34,600 500 Climbing Chicago Center
Fri 03:30:56 PM 42.3478 -92.3111 162° South 442 509 35,000 200 Climbing Chicago Center
Fri 03:31:56 PM 42.2344 -92.2608 163° South 436 502 35,000  Level Chicago Center
Fri 03:32:56 PM 42.1169 -92.2136 162° South 436 502 35,000  Level Chicago Center
Fri 03:33:56 PM 41.9994 -92.1608 163° South 436 502 35,000  Level Chicago Center
Fri 03:34:56 PM 41.8836 -92.1139 160° South 436 502 35,000 -100 Level Chicago Center
Fri 03:35:56 PM 41.7642 -92.0558 164° South 441 507 34,800 -600 Descending Chicago Center
Fri 03:36:56 PM 41.6483 -92.0122 163° South 441 507 33,800 -900 Descending Chicago Center
Fri 03:37:56 PM 41.5431 -91.9689 162° South 436 502 33,000 -850 Descending Chicago Center
Fri 03:38:56 PM 41.4256 -91.9169 163° South 436 502 32,100 -900 Descending Chicago Center
Fri 03:39:56 PM 41.3119 -91.8711 163° South 436 502 31,200 -337 Descending Chicago Center
Fri 03:42:12 PM 41.0264 -91.7547 162° South 461 531 31,000 -61 Descending Kansas City Center
Fri 03:43:12 PM 40.9042 -91.7019 163° South 461 531 31,000  Level Kansas City Center
Fri 03:44:12 PM 40.7844 -91.6547 163° South 461 531 31,000 -100 Level Kansas City Center
Fri 03:45:12 PM 40.6606 -91.6050 162° South 461 531 30,800 -600 Descending Kansas City Center
Fri 03:46:12 PM 40.5383 -91.5528 163° South 461 531 29,800 -950 Descending Kansas City Center
Fri 03:47:12 PM 40.4142 -91.5036 163° South 461 531 28,900 -950 Descending Kansas City Center
Fri 03:48:12 PM 40.2900 -91.4544 163° South 461 531 27,900 -1,000 Descending Kansas City Center
Fri 03:49:12 PM 40.1639 -91.4056 163° South 461 531 26,900 -1,000 Descending Kansas City Center
Fri 03:50:12 PM 40.0439 -91.3567 163° South 461 531 25,900 -1,150 Descending Kansas City Center
Fri 03:51:12 PM 39.9197 -91.3081 159° South 461 531 24,600 -1,900 Descending Kansas City Center
Fri 03:52:12 PM 39.8056 -91.2511 146° Southeast 456 525 22,100 -2,400 Descending Kansas City Center
Fri 03:53:12 PM 39.7094 -91.1664 136° Southeast 425 489 19,800 -2,329 Descending Kansas City Center
Fri 03:54:44 PM 39.5636 -90.9867 149° Southeast 404 465 16,200 -2,318 Descending FAA TRACON SMA TRACON (SMA)
Fri 03:55:24 PM 39.4992 -90.9356 149° Southeast 392 451 14,700 -2,169 Descending FAA TRACON SMA TRACON (SMA)
Fri 03:56:07 PM 39.4361 -90.8861 150° Southeast 382 440 13,200 -2,100 Descending FAA TRACON SMA TRACON (SMA)
Fri 03:56:44 PM 39.3806 -90.8439 149° Southeast 376 433 11,900 -1,714 Descending FAA TRACON SMA TRACON (SMA)
Fri 03:57:24 PM 39.3203 -90.7975 147° Southeast 362 417 11,000 -975 Descending FAA TRACON SMA TRACON (SMA)
Fri 03:58:04 PM 39.2725 -90.7581 145° Southeast 329 379 10,600 -889 Descending FAA TRACON SMA TRACON (SMA)
Fri 03:58:45 PM 39.2231 -90.7136 161° South 310 357 9,800 -1,350 Descending FAA TRACON SMA TRACON (SMA)
Fri 03:59:24 PM 39.1694 -90.6894 166° South 295 339 8,800 -1,443 Descending FAA TRACON SMA TRACON (SMA)
Fri 04:00:04 PM 39.1214 -90.6736 166° South 289 333 7,900 -1,350 Descending FAA TRACON SMA TRACON (SMA)
Fri 04:00:44 PM 39.0686 -90.6561 165° South 282 325 7,000 -750 Descending FAA TRACON SMA TRACON (SMA)
Fri 04:01:24 PM 39.0208 -90.6397 165° South 253 291 6,900 -525 Descending FAA TRACON SMA TRACON (SMA)
Fri 04:02:04 PM 38.9828 -90.6267 166° South 229 264 6,300 -1,050 Descending FAA TRACON SMA TRACON (SMA)
Fri 04:02:44 PM 38.9419 -90.6139 147° Southeast 219 252 5,500 -600 Descending FAA TRACON SMA TRACON (SMA)
Fri 04:04:24 PM 38.8578 -90.5447 123° Southeast 209 241 4,900 -729 Descending FAA TRACON SMA TRACON (SMA)
Fri 04:05:04 PM 38.8358 -90.5008 122° Southeast 214 246 3,800 -1,425 Descending FAA TRACON SMA TRACON (SMA)
Fri 04:05:44 PM 38.8164 -90.4608 122° Southeast 213 245 3,000 -1,037 Descending FAA TRACON SMA TRACON (SMA)
Fri 04:06:25 PM 38.7978 -90.4228 123° Southeast 177 204 2,400 -900 Descending FAA TRACON SMA TRACON (SMA)
Fri 04:07:04 PM 38.7836 -90.3944 122° Southeast 152 175 1,800 -835 Descending FAA TRACON SMA TRACON (SMA)
Fri 04:07:44 PM 38.7689 -90.3642 123° Southeast 142 163 1,300 -750 Descending FAA TRACON SMA TRACON (SMA)
Fri 04:08:24 PM 38.7544 -90.3358 123° Southeast 137 158 800 -750 Descending FAA TRACON SMA TRACON (SMA)

Login

Don't have an account? Register now (free) for customized features, flight alerts, and more!